KMBL/MBL METAR and TAF weather

Enter ICAO airport designator
Station Type Date Time Source
KMBL METAR 2021/01/17 17:56 UTC NOAA

KMBL 171756Z AUTO 29007KT 10SM -RA OVC026 00/M02 A2966 RMK AO2 RAE05B47SNB05E47 SLP049 P0000 60000 T00001022 10011 21006 58009 FZRANO


Station Type Date Time Source
KMBL Decoded METAR 2021/01/17 17:56 UTC NOAA

Manistee, Manistee County-Blacker Airport, MI, United States (KMBL) 44-16N 086-15W
Jan 17, 2021 - 12:56 PM EST / 2021.01.17 1756 UTC
Wind: from the WNW (290 degrees) at 8 MPH (7 KT):0
Visibility: 10 mile(s):0
Sky conditions: overcast
Weather: light rain
Precipitation last hour: A trace
Temperature: 32.0 F (0.0 C)
Windchill: 24 F (-4 C):1
Dew Point: 28.0 F (-2.2 C)
Relative Humidity: 85%
Pressure (altimeter): 29.66 in. Hg (1004 hPa)
Pressure tendency: 0.03 inches (0.9 hPa) lower than three hours ago
ob: KMBL 171756Z AUTO 29007KT 10SM -RA OVC026 00/M02 A2966 RMK AO2 RAE05B47SNB05E47 SLP049 P0000 60000 T00001022 10011 21006 58009 FZRANO
cycle: 18

Station Type Date Time Source
KMBL TAF 2021/01/17 18:42 UTC NOAA

TAF KMBL 171739Z 1718/1818 32006KT P6SM -SHSN VCSH OVC025
FM172200 35007KT P6SM -SHSN OVC019
FM180400 02005KT P6SM -SHSN OVC020
FM181100 34005KT P6SM -SHSN OVC019
FM181700 30006KT P6SM -SHSN OVC019

Example: see airport list